sensor_id;sensor_type;location;lat;lon;timestamp;temperature;humidity
3602;DHT22;1815;50.950;6.920;2023-04-26T00:02:11;7.20;95.10
3602;DHT22;1815;50.950;6.920;2023-04-26T00:04:38;7.20;95.20
3602;DHT22;1815;50.950;6.920;2023-04-26T00:07:05;7.20;95.40
3602;DHT22;1815;50.950;6.920;2023-04-26T00:09:32;7.20;95.50
3602;DHT22;1815;50.950;6.920;2023-04-26T00:11:58;7.10;95.60
3602;DHT22;1815;50.950;6.920;2023-04-26T00:14:24;7.10;95.70
3602;DHT22;1815;50.950;6.920;2023-04-26T00:16:53;7.10;95.80
3602;DHT22;1815;50.950;6.920;2023-04-26T00:19:19;7.00;96.00
3602;DHT22;1815;50.950;6.920;2023-04-26T00:21:45;7.00;96.10
3602;DHT22;1815;50.950;6.920;2023-04-26T00:24:11;7.00;96.10
3602;DHT22;1815;50.950;6.920;2023-04-26T00:26:37;6.90;96.20
3602;DHT22;1815;50.950;6.920;2023-04-26T00:29:05;6.90;96.30
3602;DHT22;1815;50.950;6.920;2023-04-26T00:31:31;6.90;96.70
3602;DHT22;1815;50.950;6.920;2023-04-26T00:33:57;6.80;96.60
3602;DHT22;1815;50.950;6.920;2023-04-26T00:36:23;6.80;96.80
3602;DHT22;1815;50.950;6.920;2023-04-26T00:38:48;6.80;96.90
3602;DHT22;1815;50.950;6.920;2023-04-26T00:41:14;6.70;96.90
3602;DHT22;1815;50.950;6.920;2023-04-26T00:43:40;6.70;97.10
3602;DHT22;1815;50.950;6.920;2023-04-26T00:46:07;6.60;97.20
3602;DHT22;1815;50.950;6.920;2023-04-26T00:48:33;6.60;97.30
3602;DHT22;1815;50.950;6.920;2023-04-26T00:51:01;6.60;97.50
3602;DHT22;1815;50.950;6.920;2023-04-26T00:53:27;6.60;97.70
3602;DHT22;1815;50.950;6.920;2023-04-26T00:55:55;6.50;97.80
3602;DHT22;1815;50.950;6.920;2023-04-26T00:58:21;6.50;97.90
3602;DHT22;1815;50.950;6.920;2023-04-26T01:00:46;6.50;98.10
3602;DHT22;1815;50.950;6.920;2023-04-26T01:03:14;6.50;98.30
3602;DHT22;1815;50.950;6.920;2023-04-26T01:05:49;6.40;98.30
3602;DHT22;1815;50.950;6.920;2023-04-26T01:08:15;6.40;98.40
3602;DHT22;1815;50.950;6.920;2023-04-26T01:10:49;6.40;98.60
3602;DHT22;1815;50.950;6.920;2023-04-26T01:13:15;6.40;98.80
3602;DHT22;1815;50.950;6.920;2023-04-26T01:15:45;6.40;99.00
3602;DHT22;1815;50.950;6.920;2023-04-26T01:18:11;6.40;99.30
3602;DHT22;1815;50.950;6.920;2023-04-26T01:20:38;6.30;99.20
3602;DHT22;1815;50.950;6.920;2023-04-26T01:23:04;6.30;99.30
3602;DHT22;1815;50.950;6.920;2023-04-26T01:25:31;6.30;99.50
3602;DHT22;1815;50.950;6.920;2023-04-26T01:27:57;6.40;99.70
3602;DHT22;1815;50.950;6.920;2023-04-26T01:30:24;6.40;99.80
3602;DHT22;1815;50.950;6.920;2023-04-26T01:32:50;6.40;99.90
3602;DHT22;1815;50.950;6.920;2023-04-26T01:35:16;6.30;99.90
3602;DHT22;1815;50.950;6.920;2023-04-26T01:37:42;6.30;99.90
3602;DHT22;1815;50.950;6.920;2023-04-26T01:40:08;6.30;99.90
3602;DHT22;1815;50.950;6.920;2023-04-26T01:42:35;6.30;99.90
3602;DHT22;1815;50.950;6.920;2023-04-26T01:45:01;6.30;99.90
3602;DHT22;1815;50.950;6.920;2023-04-26T01:47:48;6.30;99.90
3602;DHT22;1815;50.950;6.920;2023-04-26T01:50:13;6.20;99.90
3602;DHT22;1815;50.950;6.920;2023-04-26T01:52:39;6.20;99.90
3602;DHT22;1815;50.950;6.920;2023-04-26T01:55:05;6.20;99.90
3602;DHT22;1815;50.950;6.920;2023-04-26T01:57:31;6.20;99.90
3602;DHT22;1815;50.950;6.920;2023-04-26T01:59:57;6.10;99.90
3602;DHT22;1815;50.950;6.920;2023-04-26T02:02:25;6.10;99.90
3602;DHT22;1815;50.950;6.920;2023-04-26T02:04:50;6.10;99.90
3602;DHT22;1815;50.950;6.920;2023-04-26T02:07:16;6.10;99.90
3602;DHT22;1815;50.950;6.920;2023-04-26T02:09:45;6.10;99.90
3602;DHT22;1815;50.950;6.920;2023-04-26T02:12:11;6.00;99.90
3602;DHT22;1815;50.950;6.920;2023-04-26T02:14:37;6.00;99.90
3602;DHT22;1815;50.950;6.920;2023-04-26T02:17:03;6.00;99.90
3602;DHT22;1815;50.950;6.920;2023-04-26T02:19:29;5.90;99.90
3602;DHT22;1815;50.950;6.920;2023-04-26T02:21:56;5.90;99.90
3602;DHT22;1815;50.950;6.920;2023-04-26T02:24:23;5.90;99.90
3602;DHT22;1815;50.950;6.920;2023-04-26T02:26:49;5.90;99.90
3602;DHT22;1815;50.950;6.920;2023-04-26T02:29:16;5.90;99.90
3602;DHT22;1815;50.950;6.920;2023-04-26T02:31:42;5.80;99.90
3602;DHT22;1815;50.950;6.920;2023-04-26T02:34:08;5.80;99.90
3602;DHT22;1815;50.950;6.920;2023-04-26T02:36:33;5.80;99.90
3602;DHT22;1815;50.950;6.920;2023-04-26T02:39:00;5.70;99.90
3602;DHT22;1815;50.950;6.920;2023-04-26T02:41:27;5.70;99.90
3602;DHT22;1815;50.950;6.920;2023-04-26T02:43:52;5.70;99.90
3602;DHT22;1815;50.950;6.920;2023-04-26T02:46:18;5.70;99.90
3602;DHT22;1815;50.950;6.920;2023-04-26T02:48:44;5.70;99.90
3602;DHT22;1815;50.950;6.920;2023-04-26T02:51:10;5.70;99.90
3602;DHT22;1815;50.950;6.920;2023-04-26T02:53:35;5.60;99.90
3602;DHT22;1815;50.950;6.920;2023-04-26T02:56:01;5.60;99.90
3602;DHT22;1815;50.950;6.920;2023-04-26T02:58:29;5.60;99.90
3602;DHT22;1815;50.950;6.920;2023-04-26T03:00:56;5.60;99.90
3602;DHT22;1815;50.950;6.920;2023-04-26T03:03:23;5.60;99.90
3602;DHT22;1815;50.950;6.920;2023-04-26T03:05:49;5.60;99.90
3602;DHT22;1815;50.950;6.920;2023-04-26T03:08:15;5.60;99.90
3602;DHT22;1815;50.950;6.920;2023-04-26T03:10:42;5.60;99.90
3602;DHT22;1815;50.950;6.920;2023-04-26T03:13:09;5.50;99.90
3602;DHT22;1815;50.950;6.920;2023-04-26T03:15:35;5.50;99.90
3602;DHT22;1815;50.950;6.920;2023-04-26T03:18:00;5.50;99.90
3602;DHT22;1815;50.950;6.920;2023-04-26T03:20:26;5.50;99.90
3602;DHT22;1815;50.950;6.920;2023-04-26T03:22:52;5.50;99.90
3602;DHT22;1815;50.950;6.920;2023-04-26T03:25:18;5.50;99.90
3602;DHT22;1815;50.950;6.920;2023-04-26T03:27:44;5.50;99.90
3602;DHT22;1815;50.950;6.920;2023-04-26T03:30:10;5.40;99.90
3602;DHT22;1815;50.950;6.920;2023-04-26T03:32:38;5.40;99.90
3602;DHT22;1815;50.950;6.920;2023-04-26T03:35:04;5.40;99.90
3602;DHT22;1815;50.950;6.920;2023-04-26T03:37:31;5.40;99.90
3602;DHT22;1815;50.950;6.920;2023-04-26T03:40:02;5.40;99.90
3602;DHT22;1815;50.950;6.920;2023-04-26T03:42:28;5.40;99.90
3602;DHT22;1815;50.950;6.920;2023-04-26T03:44:54;5.40;99.90
3602;DHT22;1815;50.950;6.920;2023-04-26T03:47:21;5.40;99.90
3602;DHT22;1815;50.950;6.920;2023-04-26T03:49:47;5.30;99.90
3602;DHT22;1815;50.950;6.920;2023-04-26T03:52:13;5.30;99.90
3602;DHT22;1815;50.950;6.920;2023-04-26T03:54:39;5.30;99.90
3602;DHT22;1815;50.950;6.920;2023-04-26T03:57:05;5.30;99.90
3602;DHT22;1815;50.950;6.920;2023-04-26T03:59:31;5.30;99.90
3602;DHT22;1815;50.950;6.920;2023-04-26T04:01:58;5.30;99.90
3602;DHT22;1815;50.950;6.920;2023-04-26T04:04:24;5.20;99.90
3602;DHT22;1815;50.950;6.920;2023-04-26T04:06:50;5.20;99.90
3602;DHT22;1815;50.950;6.920;2023-04-26T04:09:16;5.20;99.90
3602;DHT22;1815;50.950;6.920;2023-04-26T04:11:42;5.20;99.90
3602;DHT22;1815;50.950;6.920;2023-04-26T04:14:08;5.20;99.90
3602;DHT22;1815;50.950;6.920;2023-04-26T04:16:33;5.20;99.90
3602;DHT22;1815;50.950;6.920;2023-04-26T04:18:59;5.20;99.90
3602;DHT22;1815;50.950;6.920;2023-04-26T04:21:25;5.20;99.90
3602;DHT22;1815;50.950;6.920;2023-04-26T04:23:52;5.20;99.90
3602;DHT22;1815;50.950;6.920;2023-04-26T04:26:18;5.20;99.90
3602;DHT22;1815;50.950;6.920;2023-04-26T04:28:44;5.20;99.90
3602;DHT22;1815;50.950;6.920;2023-04-26T04:31:12;5.20;99.90
3602;DHT22;1815;50.950;6.920;2023-04-26T04:33:38;5.20;99.90
3602;DHT22;1815;50.950;6.920;2023-04-26T04:36:05;5.20;99.90
3602;DHT22;1815;50.950;6.920;2023-04-26T04:38:31;5.20;99.90
3602;DHT22;1815;50.950;6.920;2023-04-26T04:40:57;5.30;99.90
3602;DHT22;1815;50.950;6.920;2023-04-26T04:43:23;5.20;99.90
3602;DHT22;1815;50.950;6.920;2023-04-26T04:45:49;5.30;99.90
3602;DHT22;1815;50.950;6.920;2023-04-26T04:48:15;5.30;99.90
3602;DHT22;1815;50.950;6.920;2023-04-26T04:50:43;5.30;99.90
3602;DHT22;1815;50.950;6.920;2023-04-26T04:53:09;5.40;99.90
3602;DHT22;1815;50.950;6.920;2023-04-26T04:55:35;5.40;99.90
3602;DHT22;1815;50.950;6.920;2023-04-26T04:58:02;5.50;99.90
3602;DHT22;1815;50.950;6.920;2023-04-26T05:00:30;5.60;99.90
3602;DHT22;1815;50.950;6.920;2023-04-26T05:03:06;5.60;99.90
3602;DHT22;1815;50.950;6.920;2023-04-26T05:05:34;5.70;99.90
3602;DHT22;1815;50.950;6.920;2023-04-26T05:08:00;5.70;99.90
3602;DHT22;1815;50.950;6.920;2023-04-26T05:10:26;5.80;99.90
3602;DHT22;1815;50.950;6.920;2023-04-26T05:12:52;5.90;99.90
3602;DHT22;1815;50.950;6.920;2023-04-26T05:15:18;6.00;99.90
3602;DHT22;1815;50.950;6.920;2023-04-26T05:17:44;6.00;99.90
3602;DHT22;1815;50.950;6.920;2023-04-26T05:20:15;6.10;99.90
3602;DHT22;1815;50.950;6.920;2023-04-26T05:22:42;6.10;99.90
3602;DHT22;1815;50.950;6.920;2023-04-26T05:25:08;6.20;99.90
3602;DHT22;1815;50.950;6.920;2023-04-26T05:27:35;6.30;99.90
3602;DHT22;1815;50.950;6.920;2023-04-26T05:30:20;6.40;99.90
3602;DHT22;1815;50.950;6.920;2023-04-26T05:32:57;6.50;99.90
3602;DHT22;1815;50.950;6.920;2023-04-26T05:35:32;6.60;99.90
3602;DHT22;1815;50.950;6.920;2023-04-26T05:37:58;6.70;99.90
3602;DHT22;1815;50.950;6.920;2023-04-26T05:40:25;6.90;99.90
3602;DHT22;1815;50.950;6.920;2023-04-26T05:42:51;7.00;99.90
3602;DHT22;1815;50.950;6.920;2023-04-26T05:45:16;7.20;99.90
3602;DHT22;1815;50.950;6.920;2023-04-26T05:47:42;7.40;99.90
3602;DHT22;1815;50.950;6.920;2023-04-26T05:50:08;7.50;99.90
3602;DHT22;1815;50.950;6.920;2023-04-26T05:52:34;7.70;99.90
3602;DHT22;1815;50.950;6.920;2023-04-26T05:55:00;7.80;99.90
3602;DHT22;1815;50.950;6.920;2023-04-26T05:57:30;7.90;99.90
3602;DHT22;1815;50.950;6.920;2023-04-26T05:59:56;8.10;99.90
3602;DHT22;1815;50.950;6.920;2023-04-26T06:02:22;8.20;99.90
3602;DHT22;1815;50.950;6.920;2023-04-26T06:04:48;8.30;99.90
3602;DHT22;1815;50.950;6.920;2023-04-26T06:07:16;8.40;99.90
3602;DHT22;1815;50.950;6.920;2023-04-26T06:09:45;8.40;99.90
3602;DHT22;1815;50.950;6.920;2023-04-26T06:12:11;8.50;99.90
3602;DHT22;1815;50.950;6.920;2023-04-26T06:14:40;8.60;99.90
3602;DHT22;1815;50.950;6.920;2023-04-26T06:17:10;8.70;99.90
3602;DHT22;1815;50.950;6.920;2023-04-26T06:19:35;8.80;99.90
3602;DHT22;1815;50.950;6.920;2023-04-26T06:22:01;9.00;99.90
3602;DHT22;1815;50.950;6.920;2023-04-26T06:24:28;9.20;99.90
3602;DHT22;1815;50.950;6.920;2023-04-26T06:26:54;9.70;99.90
3602;DHT22;1815;50.950;6.920;2023-04-26T06:29:20;10.50;99.90
3602;DHT22;1815;50.950;6.920;2023-04-26T06:31:47;11.60;99.90
3602;DHT22;1815;50.950;6.920;2023-04-26T06:34:13;12.80;99.90
3602;DHT22;1815;50.950;6.920;2023-04-26T06:36:39;14.00;99.90
3602;DHT22;1815;50.950;6.920;2023-04-26T06:39:05;15.20;99.90
3602;DHT22;1815;50.950;6.920;2023-04-26T06:41:32;16.30;99.90
3602;DHT22;1815;50.950;6.920;2023-04-26T06:43:57;17.40;99.90
3602;DHT22;1815;50.950;6.920;2023-04-26T06:46:29;18.10;99.90
3602;DHT22;1815;50.950;6.920;2023-04-26T06:48:55;18.80;99.90
3602;DHT22;1815;50.950;6.920;2023-04-26T06:51:21;19.30;99.90
3602;DHT22;1815;50.950;6.920;2023-04-26T06:53:47;19.70;99.90
3602;DHT22;1815;50.950;6.920;2023-04-26T06:56:13;20.20;99.90
3602;DHT22;1815;50.950;6.920;2023-04-26T06:58:39;20.70;99.90
3602;DHT22;1815;50.950;6.920;2023-04-26T07:01:04;21.20;99.90
3602;DHT22;1815;50.950;6.920;2023-04-26T07:03:32;21.50;99.90
3602;DHT22;1815;50.950;6.920;2023-04-26T07:05:58;21.70;99.40
3602;DHT22;1815;50.950;6.920;2023-04-26T07:08:24;21.90;98.20
3602;DHT22;1815;50.950;6.920;2023-04-26T07:10:50;22.00;96.50
3602;DHT22;1815;50.950;6.920;2023-04-26T07:13:16;21.90;95.50
3602;DHT22;1815;50.950;6.920;2023-04-26T07:15:42;21.90;94.70
3602;DHT22;1815;50.950;6.920;2023-04-26T07:18:08;21.90;94.00
3602;DHT22;1815;50.950;6.920;2023-04-26T07:20:34;21.80;93.40
3602;DHT22;1815;50.950;6.920;2023-04-26T07:23:00;21.80;92.40
3602;DHT22;1815;50.950;6.920;2023-04-26T07:25:26;21.60;91.70
3602;DHT22;1815;50.950;6.920;2023-04-26T07:27:52;21.40;90.60
3602;DHT22;1815;50.950;6.920;2023-04-26T07:30:18;21.30;90.60
3602;DHT22;1815;50.950;6.920;2023-04-26T07:32:43;21.20;90.20
3602;DHT22;1815;50.950;6.920;2023-04-26T07:35:09;21.20;90.50
3602;DHT22;1815;50.950;6.920;2023-04-26T07:37:42;21.30;89.90
3602;DHT22;1815;50.950;6.920;2023-04-26T07:40:08;21.30;89.50
3602;DHT22;1815;50.950;6.920;2023-04-26T07:42:34;21.30;89.00
3602;DHT22;1815;50.950;6.920;2023-04-26T07:45:00;21.20;87.80
3602;DHT22;1815;50.950;6.920;2023-04-26T07:47:26;21.20;86.30
3602;DHT22;1815;50.950;6.920;2023-04-26T07:49:52;21.00;85.20
3602;DHT22;1815;50.950;6.920;2023-04-26T07:52:19;20.80;84.60
3602;DHT22;1815;50.950;6.920;2023-04-26T07:54:45;20.60;82.90
3602;DHT22;1815;50.950;6.920;2023-04-26T07:57:12;20.50;82.40
3602;DHT22;1815;50.950;6.920;2023-04-26T07:59:37;20.20;81.00
3602;DHT22;1815;50.950;6.920;2023-04-26T08:02:03;19.90;80.30
3602;DHT22;1815;50.950;6.920;2023-04-26T08:04:30;19.60;79.20
3602;DHT22;1815;50.950;6.920;2023-04-26T08:07:00;19.20;78.00
3602;DHT22;1815;50.950;6.920;2023-04-26T08:09:29;18.80;78.60
3602;DHT22;1815;50.950;6.920;2023-04-26T08:11:55;18.50;77.30
3602;DHT22;1815;50.950;6.920;2023-04-26T08:14:21;18.30;77.80
3602;DHT22;1815;50.950;6.920;2023-04-26T08:16:47;18.30;79.10
3602;DHT22;1815;50.950;6.920;2023-04-26T08:19:13;18.40;80.30
3602;DHT22;1815;50.950;6.920;2023-04-26T08:21:38;18.50;81.00
3602;DHT22;1815;50.950;6.920;2023-04-26T08:24:04;18.60;80.30
3602;DHT22;1815;50.950;6.920;2023-04-26T08:26:30;18.80;80.90
3602;DHT22;1815;50.950;6.920;2023-04-26T08:28:55;19.10;81.20
3602;DHT22;1815;50.950;6.920;2023-04-26T08:31:22;19.40;81.10
3602;DHT22;1815;50.950;6.920;2023-04-26T08:33:47;19.70;80.60
3602;DHT22;1815;50.950;6.920;2023-04-26T08:36:13;20.10;81.60
3602;DHT22;1815;50.950;6.920;2023-04-26T08:38:39;20.40;81.10
3602;DHT22;1815;50.950;6.920;2023-04-26T08:41:05;20.60;80.00
3602;DHT22;1815;50.950;6.920;2023-04-26T08:43:36;20.70;78.70
3602;DHT22;1815;50.950;6.920;2023-04-26T08:46:06;20.80;76.80
3602;DHT22;1815;50.950;6.920;2023-04-26T08:48:35;20.70;74.40
3602;DHT22;1815;50.950;6.920;2023-04-26T08:51:02;20.70;74.60
3602;DHT22;1815;50.950;6.920;2023-04-26T08:53:29;20.50;73.90
3602;DHT22;1815;50.950;6.920;2023-04-26T08:55:56;20.50;73.80
3602;DHT22;1815;50.950;6.920;2023-04-26T08:58:22;20.60;74.50
3602;DHT22;1815;50.950;6.920;2023-04-26T09:00:49;20.60;73.40
3602;DHT22;1815;50.950;6.920;2023-04-26T09:03:15;20.40;73.00
3602;DHT22;1815;50.950;6.920;2023-04-26T09:05:41;20.50;73.40
3602;DHT22;1815;50.950;6.920;2023-04-26T09:08:16;20.40;72.80
3602;DHT22;1815;50.950;6.920;2023-04-26T09:10:43;20.40;71.10
3602;DHT22;1815;50.950;6.920;2023-04-26T09:13:08;20.30;71.60
3602;DHT22;1815;50.950;6.920;2023-04-26T09:15:34;20.10;71.10
3602;DHT22;1815;50.950;6.920;2023-04-26T09:18:21;20.00;70.00
3602;DHT22;1815;50.950;6.920;2023-04-26T09:21:07;19.70;68.00
3602;DHT22;1815;50.950;6.920;2023-04-26T09:23:33;19.40;68.30
3602;DHT22;1815;50.950;6.920;2023-04-26T09:26:18;19.30;70.20
3602;DHT22;1815;50.950;6.920;2023-04-26T09:28:45;19.60;68.60
3602;DHT22;1815;50.950;6.920;2023-04-26T09:31:43;19.70;70.20
3602;DHT22;1815;50.950;6.920;2023-04-26T09:34:09;19.80;70.20
3602;DHT22;1815;50.950;6.920;2023-04-26T09:39:29;19.60;66.50
3602;DHT22;1815;50.950;6.920;2023-04-26T09:41:56;19.30;64.60
3602;DHT22;1815;50.950;6.920;2023-04-26T09:44:23;19.00;65.10
3602;DHT22;1815;50.950;6.920;2023-04-26T09:46:59;18.70;65.10
3602;DHT22;1815;50.950;6.920;2023-04-26T09:49:29;18.40;63.40
3602;DHT22;1815;50.950;6.920;2023-04-26T09:52:03;18.10;64.20
3602;DHT22;1815;50.950;6.920;2023-04-26T09:57:08;17.60;62.80
3602;DHT22;1815;50.950;6.920;2023-04-26T09:59:48;17.40;63.90
3602;DHT22;1815;50.950;6.920;2023-04-26T10:02:25;17.20;63.10
3602;DHT22;1815;50.950;6.920;2023-04-26T10:04:52;17.00;63.70
3602;DHT22;1815;50.950;6.920;2023-04-26T10:07:21;16.90;64.20
3602;DHT22;1815;50.950;6.920;2023-04-26T10:09:48;16.80;65.30
3602;DHT22;1815;50.950;6.920;2023-04-26T10:12:15;16.90;65.70
3602;DHT22;1815;50.950;6.920;2023-04-26T10:14:43;17.00;66.10
3602;DHT22;1815;50.950;6.920;2023-04-26T10:17:09;17.10;66.40
3602;DHT22;1815;50.950;6.920;2023-04-26T10:19:37;17.20;66.40
3602;DHT22;1815;50.950;6.920;2023-04-26T10:22:07;17.40;66.80
3602;DHT22;1815;50.950;6.920;2023-04-26T10:24:37;17.60;67.70
3602;DHT22;1815;50.950;6.920;2023-04-26T10:27:03;18.10;69.20
3602;DHT22;1815;50.950;6.920;2023-04-26T10:32:21;19.60;70.90
3602;DHT22;1815;50.950;6.920;2023-04-26T10:35:12;20.50;72.40
3602;DHT22;1815;50.950;6.920;2023-04-26T10:40:37;21.90;71.50
3602;DHT22;1815;50.950;6.920;2023-04-26T10:43:27;22.50;70.20
3602;DHT22;1815;50.950;6.920;2023-04-26T10:45:53;22.80;67.80
3602;DHT22;1815;50.950;6.920;2023-04-26T10:58:48;22.10;61.70
3602;DHT22;1815;50.950;6.920;2023-04-26T11:01:18;22.10;62.80
3602;DHT22;1815;50.950;6.920;2023-04-26T11:06:30;22.40;62.50
3602;DHT22;1815;50.950;6.920;2023-04-26T11:09:50;22.50;62.00
3602;DHT22;1815;50.950;6.920;2023-04-26T11:12:16;22.30;60.20
3602;DHT22;1815;50.950;6.920;2023-04-26T11:14:44;22.20;60.00
3602;DHT22;1815;50.950;6.920;2023-04-26T11:17:10;22.20;60.00
3602;DHT22;1815;50.950;6.920;2023-04-26T11:19:37;22.20;59.60
3602;DHT22;1815;50.950;6.920;2023-04-26T11:22:05;22.10;59.30
3602;DHT22;1815;50.950;6.920;2023-04-26T11:24:32;22.20;58.90
3602;DHT22;1815;50.950;6.920;2023-04-26T11:27:07;22.10;58.70
3602;DHT22;1815;50.950;6.920;2023-04-26T11:29:33;22.00;57.50
3602;DHT22;1815;50.950;6.920;2023-04-26T11:31:58;22.00;58.10
3602;DHT22;1815;50.950;6.920;2023-04-26T11:34:37;22.10;58.50
3602;DHT22;1815;50.950;6.920;2023-04-26T11:37:07;22.20;57.60
3602;DHT22;1815;50.950;6.920;2023-04-26T11:39:33;22.30;57.50
3602;DHT22;1815;50.950;6.920;2023-04-26T11:42:06;22.30;57.00
3602;DHT22;1815;50.950;6.920;2023-04-26T11:44:32;22.20;56.30
3602;DHT22;1815;50.950;6.920;2023-04-26T11:47:02;22.10;55.80
3602;DHT22;1815;50.950;6.920;2023-04-26T11:49:32;22.00;55.50
3602;DHT22;1815;50.950;6.920;2023-04-26T11:51:59;22.00;55.70
3602;DHT22;1815;50.950;6.920;2023-04-26T11:54:36;21.80;54.70
3602;DHT22;1815;50.950;6.920;2023-04-26T11:57:17;21.60;54.30
3602;DHT22;1815;50.950;6.920;2023-04-26T11:59:43;21.40;54.60
3602;DHT22;1815;50.950;6.920;2023-04-26T12:02:09;21.30;55.50
3602;DHT22;1815;50.950;6.920;2023-04-26T12:04:36;21.40;55.60
3602;DHT22;1815;50.950;6.920;2023-04-26T12:07:03;21.40;55.30
3602;DHT22;1815;50.950;6.920;2023-04-26T12:09:30;21.40;55.00
3602;DHT22;1815;50.950;6.920;2023-04-26T12:12:00;21.40;55.00
3602;DHT22;1815;50.950;6.920;2023-04-26T12:14:37;21.40;54.40
3602;DHT22;1815;50.950;6.920;2023-04-26T12:17:05;21.40;54.60
3602;DHT22;1815;50.950;6.920;2023-04-26T12:19:38;21.40;55.00
3602;DHT22;1815;50.950;6.920;2023-04-26T12:22:07;21.40;54.80
3602;DHT22;1815;50.950;6.920;2023-04-26T12:24:33;21.40;54.40
3602;DHT22;1815;50.950;6.920;2023-04-26T12:27:01;21.30;53.90
3602;DHT22;1815;50.950;6.920;2023-04-26T12:29:31;21.30;53.70
3602;DHT22;1815;50.950;6.920;2023-04-26T12:31:58;21.10;51.90
3602;DHT22;1815;50.950;6.920;2023-04-26T12:34:24;21.10;53.10
3602;DHT22;1815;50.950;6.920;2023-04-26T12:36:50;21.10;53.50
3602;DHT22;1815;50.950;6.920;2023-04-26T12:39:16;21.10;53.60
3602;DHT22;1815;50.950;6.920;2023-04-26T12:41:44;21.10;53.50
3602;DHT22;1815;50.950;6.920;2023-04-26T12:44:11;21.10;53.20
3602;DHT22;1815;50.950;6.920;2023-04-26T12:46:39;21.00;52.90
3602;DHT22;1815;50.950;6.920;2023-04-26T12:49:05;20.90;52.10
3602;DHT22;1815;50.950;6.920;2023-04-26T12:51:31;20.70;51.60
3602;DHT22;1815;50.950;6.920;2023-04-26T12:53:58;20.50;51.40
3602;DHT22;1815;50.950;6.920;2023-04-26T12:56:24;20.20;50.60
3602;DHT22;1815;50.950;6.920;2023-04-26T12:58:49;20.00;50.30
3602;DHT22;1815;50.950;6.920;2023-04-26T13:01:16;19.80;50.30
3602;DHT22;1815;50.950;6.920;2023-04-26T13:03:42;19.60;50.20
3602;DHT22;1815;50.950;6.920;2023-04-26T13:06:08;19.40;50.40
3602;DHT22;1815;50.950;6.920;2023-04-26T13:08:34;19.20;49.30
3602;DHT22;1815;50.950;6.920;2023-04-26T13:11:00;19.10;50.10
3602;DHT22;1815;50.950;6.920;2023-04-26T13:13:26;18.90;49.60
3602;DHT22;1815;50.950;6.920;2023-04-26T13:15:52;18.60;49.60
3602;DHT22;1815;50.950;6.920;2023-04-26T13:18:18;18.50;49.80
3602;DHT22;1815;50.950;6.920;2023-04-26T13:20:44;18.30;49.60
3602;DHT22;1815;50.950;6.920;2023-04-26T13:23:10;18.10;49.60
3602;DHT22;1815;50.950;6.920;2023-04-26T13:25:36;18.00;49.60
3602;DHT22;1815;50.950;6.920;2023-04-26T13:28:02;17.80;49.40
3602;DHT22;1815;50.950;6.920;2023-04-26T13:30:28;17.60;49.40
3602;DHT22;1815;50.950;6.920;2023-04-26T13:32:54;17.30;49.40
3602;DHT22;1815;50.950;6.920;2023-04-26T13:35:23;17.20;49.60
3602;DHT22;1815;50.950;6.920;2023-04-26T13:37:49;17.00;49.50
3602;DHT22;1815;50.950;6.920;2023-04-26T13:40:15;17.00;50.30
3602;DHT22;1815;50.950;6.920;2023-04-26T13:42:41;16.90;50.20
3602;DHT22;1815;50.950;6.920;2023-04-26T13:45:08;16.90;50.40
3602;DHT22;1815;50.950;6.920;2023-04-26T13:47:35;16.80;50.10
3602;DHT22;1815;50.950;6.920;2023-04-26T13:50:02;16.70;49.50
3602;DHT22;1815;50.950;6.920;2023-04-26T13:52:27;16.50;49.60
3602;DHT22;1815;50.950;6.920;2023-04-26T13:54:53;16.40;49.70
3602;DHT22;1815;50.950;6.920;2023-04-26T13:57:20;16.30;49.70
3602;DHT22;1815;50.950;6.920;2023-04-26T13:59:48;16.20;49.80
3602;DHT22;1815;50.950;6.920;2023-04-26T14:02:14;16.10;50.00
3602;DHT22;1815;50.950;6.920;2023-04-26T14:04:40;16.10;50.10
3602;DHT22;1815;50.950;6.920;2023-04-26T14:07:06;16.00;49.50
3602;DHT22;1815;50.950;6.920;2023-04-26T14:09:31;16.00;50.00
3602;DHT22;1815;50.950;6.920;2023-04-26T14:11:57;16.00;50.30
3602;DHT22;1815;50.950;6.920;2023-04-26T14:14:23;16.10;50.60
3602;DHT22;1815;50.950;6.920;2023-04-26T14:16:49;16.10;50.70
3602;DHT22;1815;50.950;6.920;2023-04-26T14:19:18;16.20;50.90
3602;DHT22;1815;50.950;6.920;2023-04-26T14:21:44;16.20;50.90
3602;DHT22;1815;50.950;6.920;2023-04-26T14:24:10;16.30;50.70
3602;DHT22;1815;50.950;6.920;2023-04-26T14:26:36;16.40;50.90
3602;DHT22;1815;50.950;6.920;2023-04-26T14:29:02;16.40;51.30
3602;DHT22;1815;50.950;6.920;2023-04-26T14:31:29;16.40;51.20
3602;DHT22;1815;50.950;6.920;2023-04-26T14:33:56;16.40;51.40
3602;DHT22;1815;50.950;6.920;2023-04-26T14:36:22;16.40;51.40
3602;DHT22;1815;50.950;6.920;2023-04-26T14:39:15;16.30;51.40
3602;DHT22;1815;50.950;6.920;2023-04-26T14:41:46;16.30;51.20
3602;DHT22;1815;50.950;6.920;2023-04-26T14:44:12;16.30;51.60
3602;DHT22;1815;50.950;6.920;2023-04-26T14:46:38;16.30;51.50
3602;DHT22;1815;50.950;6.920;2023-04-26T14:49:03;16.30;51.50
3602;DHT22;1815;50.950;6.920;2023-04-26T14:51:30;16.30;51.30
3602;DHT22;1815;50.950;6.920;2023-04-26T14:53:56;16.20;50.90
3602;DHT22;1815;50.950;6.920;2023-04-26T14:56:22;16.10;50.50
3602;DHT22;1815;50.950;6.920;2023-04-26T14:58:48;16.00;50.50
3602;DHT22;1815;50.950;6.920;2023-04-26T15:01:13;16.00;50.80
3602;DHT22;1815;50.950;6.920;2023-04-26T15:03:39;16.00;50.90
3602;DHT22;1815;50.950;6.920;2023-04-26T15:06:07;15.90;50.70
3602;DHT22;1815;50.950;6.920;2023-04-26T15:08:34;15.80;50.80
3602;DHT22;1815;50.950;6.920;2023-04-26T15:11:00;15.80;51.00
3602;DHT22;1815;50.950;6.920;2023-04-26T15:13:26;15.80;51.10
3602;DHT22;1815;50.950;6.920;2023-04-26T15:15:52;15.90;51.40
3602;DHT22;1815;50.950;6.920;2023-04-26T15:18:18;15.90;51.50
3602;DHT22;1815;50.950;6.920;2023-04-26T15:20:43;15.90;51.50
3602;DHT22;1815;50.950;6.920;2023-04-26T15:23:12;16.00;52.00
3602;DHT22;1815;50.950;6.920;2023-04-26T15:25:38;16.00;51.30
3602;DHT22;1815;50.950;6.920;2023-04-26T15:28:03;15.90;51.30
3602;DHT22;1815;50.950;6.920;2023-04-26T15:30:29;15.80;51.10
3602;DHT22;1815;50.950;6.920;2023-04-26T15:32:55;15.80;51.00
3602;DHT22;1815;50.950;6.920;2023-04-26T15:35:21;15.70;51.10
3602;DHT22;1815;50.950;6.920;2023-04-26T15:37:47;15.60;51.00
3602;DHT22;1815;50.950;6.920;2023-04-26T15:40:13;15.60;51.30
3602;DHT22;1815;50.950;6.920;2023-04-26T15:42:39;15.50;51.00
3602;DHT22;1815;50.950;6.920;2023-04-26T15:45:05;15.50;51.30
3602;DHT22;1815;50.950;6.920;2023-04-26T15:47:33;15.40;51.40
3602;DHT22;1815;50.950;6.920;2023-04-26T15:50:03;15.40;51.40
3602;DHT22;1815;50.950;6.920;2023-04-26T15:52:31;15.40;51.40
3602;DHT22;1815;50.950;6.920;2023-04-26T15:54:58;15.40;51.30
3602;DHT22;1815;50.950;6.920;2023-04-26T15:57:24;15.40;51.20
3602;DHT22;1815;50.950;6.920;2023-04-26T15:59:49;15.30;51.20
3602;DHT22;1815;50.950;6.920;2023-04-26T16:02:15;15.30;51.40
3602;DHT22;1815;50.950;6.920;2023-04-26T16:04:41;15.20;51.10
3602;DHT22;1815;50.950;6.920;2023-04-26T16:07:06;15.10;51.10
3602;DHT22;1815;50.950;6.920;2023-04-26T16:09:32;15.10;51.10
3602;DHT22;1815;50.950;6.920;2023-04-26T16:11:58;15.10;51.70
3602;DHT22;1815;50.950;6.920;2023-04-26T16:14:23;15.00;51.30
3602;DHT22;1815;50.950;6.920;2023-04-26T16:16:49;15.00;51.40
3602;DHT22;1815;50.950;6.920;2023-04-26T16:19:15;15.00;51.50
3602;DHT22;1815;50.950;6.920;2023-04-26T16:21:41;14.90;51.50
3602;DHT22;1815;50.950;6.920;2023-04-26T16:24:07;14.90;51.50
3602;DHT22;1815;50.950;6.920;2023-04-26T16:26:34;14.90;51.50
3602;DHT22;1815;50.950;6.920;2023-04-26T16:29:00;14.90;51.70
3602;DHT22;1815;50.950;6.920;2023-04-26T16:31:26;14.80;51.70
3602;DHT22;1815;50.950;6.920;2023-04-26T16:33:52;14.80;51.70